sensor_id;sensor_type;location;lat;lon;timestamp;temperature;humidity
7174;DHT22;3628;48.654;8.932;2023-10-31T00:00:13;11.20;99.90
7174;DHT22;3628;48.654;8.932;2023-10-31T00:02:39;11.20;99.90
7174;DHT22;3628;48.654;8.932;2023-10-31T00:05:05;11.10;99.90
7174;DHT22;3628;48.654;8.932;2023-10-31T00:07:30;11.10;99.90
7174;DHT22;3628;48.654;8.932;2023-10-31T00:09:56;11.10;99.90
7174;DHT22;3628;48.654;8.932;2023-10-31T00:12:21;11.10;99.90
7174;DHT22;3628;48.654;8.932;2023-10-31T00:14:47;11.10;99.90
7174;DHT22;3628;48.654;8.932;2023-10-31T00:17:12;11.20;99.90
7174;DHT22;3628;48.654;8.932;2023-10-31T00:19:38;11.20;99.90
7174;DHT22;3628;48.654;8.932;2023-10-31T00:22:03;11.20;99.90
7174;DHT22;3628;48.654;8.932;2023-10-31T00:24:29;11.10;99.90
7174;DHT22;3628;48.654;8.932;2023-10-31T00:26:57;11.10;99.90
7174;DHT22;3628;48.654;8.932;2023-10-31T00:29:23;11.10;99.90
7174;DHT22;3628;48.654;8.932;2023-10-31T00:31:48;11.10;99.90
7174;DHT22;3628;48.654;8.932;2023-10-31T00:34:14;11.10;99.90
7174;DHT22;3628;48.654;8.932;2023-10-31T00:36:39;11.10;99.90
7174;DHT22;3628;48.654;8.932;2023-10-31T00:39:05;11.10;99.90
7174;DHT22;3628;48.654;8.932;2023-10-31T00:41:30;11.10;99.90
7174;DHT22;3628;48.654;8.932;2023-10-31T00:43:56;11.10;99.90
7174;DHT22;3628;48.654;8.932;2023-10-31T00:46:21;11.00;99.90
7174;DHT22;3628;48.654;8.932;2023-10-31T00:48:47;11.00;99.90
7174;DHT22;3628;48.654;8.932;2023-10-31T00:51:13;10.90;99.90
7174;DHT22;3628;48.654;8.932;2023-10-31T00:53:39;10.90;99.90
7174;DHT22;3628;48.654;8.932;2023-10-31T00:56:04;10.90;99.90
7174;DHT22;3628;48.654;8.932;2023-10-31T00:58:30;10.90;99.90
7174;DHT22;3628;48.654;8.932;2023-10-31T01:00:56;10.70;99.90
7174;DHT22;3628;48.654;8.932;2023-10-31T01:03:21;10.70;99.90
7174;DHT22;3628;48.654;8.932;2023-10-31T01:05:47;10.70;99.90
7174;DHT22;3628;48.654;8.932;2023-10-31T01:08:12;10.60;99.90
7174;DHT22;3628;48.654;8.932;2023-10-31T01:10:38;10.40;99.90
7174;DHT22;3628;48.654;8.932;2023-10-31T01:13:03;10.40;99.90
7174;DHT22;3628;48.654;8.932;2023-10-31T01:15:29;10.30;99.90
7174;DHT22;3628;48.654;8.932;2023-10-31T01:17:54;10.20;99.90
7174;DHT22;3628;48.654;8.932;2023-10-31T01:20:20;10.10;99.90
7174;DHT22;3628;48.654;8.932;2023-10-31T01:22:46;10.10;99.90
7174;DHT22;3628;48.654;8.932;2023-10-31T01:25:11;10.00;99.90
7174;DHT22;3628;48.654;8.932;2023-10-31T01:27:37;10.00;99.90
7174;DHT22;3628;48.654;8.932;2023-10-31T01:30:03;10.00;99.90
7174;DHT22;3628;48.654;8.932;2023-10-31T01:32:28;10.00;99.90
7174;DHT22;3628;48.654;8.932;2023-10-31T01:34:54;10.00;99.90
7174;DHT22;3628;48.654;8.932;2023-10-31T01:37:19;10.00;99.90
7174;DHT22;3628;48.654;8.932;2023-10-31T01:39:46;10.00;99.90
7174;DHT22;3628;48.654;8.932;2023-10-31T01:42:15;10.00;99.90
7174;DHT22;3628;48.654;8.932;2023-10-31T01:44:40;10.10;99.90
7174;DHT22;3628;48.654;8.932;2023-10-31T01:47:06;10.10;99.90
7174;DHT22;3628;48.654;8.932;2023-10-31T01:49:32;10.10;99.90
7174;DHT22;3628;48.654;8.932;2023-10-31T01:51:59;10.10;99.90
7174;DHT22;3628;48.654;8.932;2023-10-31T01:54:25;10.20;99.90
7174;DHT22;3628;48.654;8.932;2023-10-31T01:56:51;10.20;99.90
7174;DHT22;3628;48.654;8.932;2023-10-31T01:59:21;10.30;99.90
7174;DHT22;3628;48.654;8.932;2023-10-31T02:01:48;10.30;99.90
7174;DHT22;3628;48.654;8.932;2023-10-31T02:04:13;10.30;99.90
7174;DHT22;3628;48.654;8.932;2023-10-31T02:06:39;10.30;99.90
7174;DHT22;3628;48.654;8.932;2023-10-31T02:09:04;10.40;99.90
7174;DHT22;3628;48.654;8.932;2023-10-31T02:11:30;10.40;99.90
7174;DHT22;3628;48.654;8.932;2023-10-31T02:13:55;10.40;99.90
7174;DHT22;3628;48.654;8.932;2023-10-31T02:16:21;10.50;99.90
7174;DHT22;3628;48.654;8.932;2023-10-31T02:18:46;10.50;99.90
7174;DHT22;3628;48.654;8.932;2023-10-31T02:21:12;10.40;99.90
7174;DHT22;3628;48.654;8.932;2023-10-31T02:23:38;10.40;99.90
7174;DHT22;3628;48.654;8.932;2023-10-31T02:26:03;10.40;99.90
7174;DHT22;3628;48.654;8.932;2023-10-31T02:28:29;10.40;99.90
7174;DHT22;3628;48.654;8.932;2023-10-31T02:30:55;10.40;99.90
7174;DHT22;3628;48.654;8.932;2023-10-31T02:33:21;10.40;99.90
7174;DHT22;3628;48.654;8.932;2023-10-31T02:35:46;10.40;99.90
7174;DHT22;3628;48.654;8.932;2023-10-31T02:38:12;10.40;99.90
7174;DHT22;3628;48.654;8.932;2023-10-31T02:40:37;10.40;99.90
7174;DHT22;3628;48.654;8.932;2023-10-31T02:43:03;10.40;99.90
7174;DHT22;3628;48.654;8.932;2023-10-31T02:45:29;10.40;99.90
7174;DHT22;3628;48.654;8.932;2023-10-31T02:47:55;10.40;99.90
7174;DHT22;3628;48.654;8.932;2023-10-31T02:50:20;10.40;99.90
7174;DHT22;3628;48.654;8.932;2023-10-31T02:52:46;10.40;99.90
7174;DHT22;3628;48.654;8.932;2023-10-31T02:55:11;10.40;99.90
7174;DHT22;3628;48.654;8.932;2023-10-31T02:57:37;10.40;99.90
7174;DHT22;3628;48.654;8.932;2023-10-31T03:00:03;10.40;99.90
7174;DHT22;3628;48.654;8.932;2023-10-31T03:02:29;10.40;99.90
7174;DHT22;3628;48.654;8.932;2023-10-31T03:04:55;10.40;99.90
7174;DHT22;3628;48.654;8.932;2023-10-31T03:07:21;10.40;99.90
7174;DHT22;3628;48.654;8.932;2023-10-31T03:09:46;10.40;99.90
7174;DHT22;3628;48.654;8.932;2023-10-31T03:12:12;10.30;99.90
7174;DHT22;3628;48.654;8.932;2023-10-31T03:14:37;10.30;99.90
7174;DHT22;3628;48.654;8.932;2023-10-31T03:17:03;10.30;99.90
7174;DHT22;3628;48.654;8.932;2023-10-31T03:19:28;10.30;99.90
7174;DHT22;3628;48.654;8.932;2023-10-31T03:21:54;10.20;99.90
7174;DHT22;3628;48.654;8.932;2023-10-31T03:24:19;10.20;99.90
7174;DHT22;3628;48.654;8.932;2023-10-31T03:26:45;10.10;99.90
7174;DHT22;3628;48.654;8.932;2023-10-31T03:29:10;10.00;99.90
7174;DHT22;3628;48.654;8.932;2023-10-31T03:31:36;10.00;99.90
7174;DHT22;3628;48.654;8.932;2023-10-31T03:34:01;10.00;99.90
7174;DHT22;3628;48.654;8.932;2023-10-31T03:36:27;10.00;99.90
7174;DHT22;3628;48.654;8.932;2023-10-31T03:38:53;9.90;99.90
7174;DHT22;3628;48.654;8.932;2023-10-31T03:41:18;9.90;99.90
7174;DHT22;3628;48.654;8.932;2023-10-31T03:43:43;9.80;99.90
7174;DHT22;3628;48.654;8.932;2023-10-31T03:46:09;9.80;99.90
7174;DHT22;3628;48.654;8.932;2023-10-31T03:48:35;9.80;99.90
7174;DHT22;3628;48.654;8.932;2023-10-31T03:51:00;9.80;99.90
7174;DHT22;3628;48.654;8.932;2023-10-31T03:53:25;9.70;99.90
7174;DHT22;3628;48.654;8.932;2023-10-31T03:55:51;9.70;99.90
7174;DHT22;3628;48.654;8.932;2023-10-31T03:58:16;9.60;99.90
7174;DHT22;3628;48.654;8.932;2023-10-31T04:00:42;9.60;99.90
7174;DHT22;3628;48.654;8.932;2023-10-31T04:03:08;9.60;99.90
7174;DHT22;3628;48.654;8.932;2023-10-31T04:05:34;9.50;99.90
7174;DHT22;3628;48.654;8.932;2023-10-31T04:07:59;9.50;99.90
7174;DHT22;3628;48.654;8.932;2023-10-31T04:10:25;9.50;99.90
7174;DHT22;3628;48.654;8.932;2023-10-31T04:12:50;9.40;99.90
7174;DHT22;3628;48.654;8.932;2023-10-31T04:15:16;9.40;99.90
7174;DHT22;3628;48.654;8.932;2023-10-31T04:17:41;9.40;99.90
7174;DHT22;3628;48.654;8.932;2023-10-31T04:20:07;9.40;99.90
7174;DHT22;3628;48.654;8.932;2023-10-31T04:22:33;9.30;99.90
7174;DHT22;3628;48.654;8.932;2023-10-31T04:24:58;9.40;99.90
7174;DHT22;3628;48.654;8.932;2023-10-31T04:27:24;9.40;99.90
7174;DHT22;3628;48.654;8.932;2023-10-31T04:29:49;9.30;99.90
7174;DHT22;3628;48.654;8.932;2023-10-31T04:32:15;9.40;99.90
7174;DHT22;3628;48.654;8.932;2023-10-31T04:34:40;9.40;99.90
7174;DHT22;3628;48.654;8.932;2023-10-31T04:37:06;9.30;99.90
7174;DHT22;3628;48.654;8.932;2023-10-31T04:39:32;9.30;99.90
7174;DHT22;3628;48.654;8.932;2023-10-31T04:41:57;9.30;99.90
7174;DHT22;3628;48.654;8.932;2023-10-31T04:44:23;9.30;99.90
7174;DHT22;3628;48.654;8.932;2023-10-31T04:46:48;9.30;99.90
7174;DHT22;3628;48.654;8.932;2023-10-31T04:49:14;9.30;99.90
7174;DHT22;3628;48.654;8.932;2023-10-31T04:51:43;9.30;99.90
7174;DHT22;3628;48.654;8.932;2023-10-31T04:54:08;9.30;99.90
7174;DHT22;3628;48.654;8.932;2023-10-31T04:56:34;9.30;99.90
7174;DHT22;3628;48.654;8.932;2023-10-31T04:59:00;9.30;99.90
7174;DHT22;3628;48.654;8.932;2023-10-31T05:01:25;9.30;99.90
7174;DHT22;3628;48.654;8.932;2023-10-31T05:03:51;9.30;99.90
7174;DHT22;3628;48.654;8.932;2023-10-31T05:06:21;9.30;99.90
7174;DHT22;3628;48.654;8.932;2023-10-31T05:08:48;9.30;99.90
7174;DHT22;3628;48.654;8.932;2023-10-31T05:11:16;9.20;99.90
7174;DHT22;3628;48.654;8.932;2023-10-31T05:13:41;9.20;99.90
7174;DHT22;3628;48.654;8.932;2023-10-31T05:16:07;9.20;99.90
7174;DHT22;3628;48.654;8.932;2023-10-31T05:18:32;9.10;99.90
7174;DHT22;3628;48.654;8.932;2023-10-31T05:20:58;9.10;99.90
7174;DHT22;3628;48.654;8.932;2023-10-31T05:23:23;9.00;99.90
7174;DHT22;3628;48.654;8.932;2023-10-31T05:25:49;9.00;99.90
7174;DHT22;3628;48.654;8.932;2023-10-31T05:28:14;9.00;99.90
7174;DHT22;3628;48.654;8.932;2023-10-31T05:30:40;9.00;99.90
7174;DHT22;3628;48.654;8.932;2023-10-31T05:33:05;8.90;99.90
7174;DHT22;3628;48.654;8.932;2023-10-31T05:35:31;8.90;99.90
7174;DHT22;3628;48.654;8.932;2023-10-31T05:37:58;8.90;99.90
7174;DHT22;3628;48.654;8.932;2023-10-31T05:40:23;8.90;99.90
7174;DHT22;3628;48.654;8.932;2023-10-31T05:42:50;8.90;99.90
7174;DHT22;3628;48.654;8.932;2023-10-31T05:45:16;8.80;99.90
7174;DHT22;3628;48.654;8.932;2023-10-31T05:47:41;8.80;99.90
7174;DHT22;3628;48.654;8.932;2023-10-31T05:50:07;8.70;99.90
7174;DHT22;3628;48.654;8.932;2023-10-31T05:52:33;8.70;99.90
7174;DHT22;3628;48.654;8.932;2023-10-31T05:54:59;8.70;99.90
7174;DHT22;3628;48.654;8.932;2023-10-31T05:57:25;8.70;99.90
7174;DHT22;3628;48.654;8.932;2023-10-31T05:59:50;8.70;99.90
7174;DHT22;3628;48.654;8.932;2023-10-31T06:02:16;8.70;99.90
7174;DHT22;3628;48.654;8.932;2023-10-31T06:04:41;8.70;99.90
7174;DHT22;3628;48.654;8.932;2023-10-31T06:07:07;8.60;99.90
7174;DHT22;3628;48.654;8.932;2023-10-31T06:09:33;8.60;99.90
7174;DHT22;3628;48.654;8.932;2023-10-31T06:11:59;8.60;99.90
7174;DHT22;3628;48.654;8.932;2023-10-31T06:14:25;8.70;99.90
7174;DHT22;3628;48.654;8.932;2023-10-31T06:16:51;8.70;99.90
7174;DHT22;3628;48.654;8.932;2023-10-31T06:19:17;8.70;99.90
7174;DHT22;3628;48.654;8.932;2023-10-31T06:21:43;8.70;99.90
7174;DHT22;3628;48.654;8.932;2023-10-31T06:24:08;8.70;99.90
7174;DHT22;3628;48.654;8.932;2023-10-31T06:26:34;8.70;99.90
7174;DHT22;3628;48.654;8.932;2023-10-31T06:28:59;8.70;99.90
7174;DHT22;3628;48.654;8.932;2023-10-31T06:31:25;8.70;99.90
7174;DHT22;3628;48.654;8.932;2023-10-31T06:33:50;8.70;99.90
7174;DHT22;3628;48.654;8.932;2023-10-31T06:36:16;8.70;99.90
7174;DHT22;3628;48.654;8.932;2023-10-31T06:38:41;8.70;99.90
7174;DHT22;3628;48.654;8.932;2023-10-31T06:41:07;8.70;99.90
7174;DHT22;3628;48.654;8.932;2023-10-31T06:43:33;8.70;99.90
7174;DHT22;3628;48.654;8.932;2023-10-31T06:45:58;8.70;99.90
7174;DHT22;3628;48.654;8.932;2023-10-31T06:48:26;8.80;99.90
7174;DHT22;3628;48.654;8.932;2023-10-31T06:50:51;8.80;99.90
7174;DHT22;3628;48.654;8.932;2023-10-31T06:53:17;8.80;99.90
7174;DHT22;3628;48.654;8.932;2023-10-31T06:55:42;8.80;99.90
7174;DHT22;3628;48.654;8.932;2023-10-31T06:58:08;8.90;99.90
7174;DHT22;3628;48.654;8.932;2023-10-31T07:00:33;8.90;99.90
7174;DHT22;3628;48.654;8.932;2023-10-31T07:02:59;8.90;99.90
7174;DHT22;3628;48.654;8.932;2023-10-31T07:05:30;9.00;99.90
7174;DHT22;3628;48.654;8.932;2023-10-31T07:07:55;9.00;99.90
7174;DHT22;3628;48.654;8.932;2023-10-31T07:10:21;9.00;99.90
7174;DHT22;3628;48.654;8.932;2023-10-31T07:12:47;9.00;99.90
7174;DHT22;3628;48.654;8.932;2023-10-31T07:15:13;9.10;99.90
7174;DHT22;3628;48.654;8.932;2023-10-31T07:17:38;9.10;99.90
7174;DHT22;3628;48.654;8.932;2023-10-31T07:20:05;9.20;99.90
7174;DHT22;3628;48.654;8.932;2023-10-31T07:22:31;9.20;99.90
7174;DHT22;3628;48.654;8.932;2023-10-31T07:24:57;9.30;99.90
7174;DHT22;3628;48.654;8.932;2023-10-31T07:27:24;9.30;99.90
7174;DHT22;3628;48.654;8.932;2023-10-31T07:29:50;9.30;99.90
7174;DHT22;3628;48.654;8.932;2023-10-31T07:32:15;9.40;99.90
7174;DHT22;3628;48.654;8.932;2023-10-31T07:34:41;9.50;99.90
7174;DHT22;3628;48.654;8.932;2023-10-31T07:37:08;9.50;99.90
7174;DHT22;3628;48.654;8.932;2023-10-31T07:39:33;9.60;99.90
7174;DHT22;3628;48.654;8.932;2023-10-31T07:41:59;9.60;99.90
7174;DHT22;3628;48.654;8.932;2023-10-31T07:44:24;9.70;99.90
7174;DHT22;3628;48.654;8.932;2023-10-31T07:46:50;9.70;99.90
7174;DHT22;3628;48.654;8.932;2023-10-31T07:49:15;9.70;99.90
7174;DHT22;3628;48.654;8.932;2023-10-31T07:51:41;9.70;99.90
7174;DHT22;3628;48.654;8.932;2023-10-31T07:54:07;9.80;99.90
7174;DHT22;3628;48.654;8.932;2023-10-31T07:56:34;9.80;99.90
7174;DHT22;3628;48.654;8.932;2023-10-31T07:59:01;9.90;99.90
7174;DHT22;3628;48.654;8.932;2023-10-31T08:01:27;9.90;99.90
7174;DHT22;3628;48.654;8.932;2023-10-31T08:03:53;10.00;99.90
7174;DHT22;3628;48.654;8.932;2023-10-31T08:06:19;10.00;99.90
7174;DHT22;3628;48.654;8.932;2023-10-31T08:08:44;10.10;99.90
7174;DHT22;3628;48.654;8.932;2023-10-31T08:11:10;10.20;99.90
7174;DHT22;3628;48.654;8.932;2023-10-31T08:13:37;10.20;99.90
7174;DHT22;3628;48.654;8.932;2023-10-31T08:16:04;10.30;99.90
7174;DHT22;3628;48.654;8.932;2023-10-31T08:18:30;10.30;99.90
7174;DHT22;3628;48.654;8.932;2023-10-31T08:20:56;10.30;99.90
7174;DHT22;3628;48.654;8.932;2023-10-31T08:23:21;10.40;99.90
7174;DHT22;3628;48.654;8.932;2023-10-31T08:25:47;10.40;99.90
7174;DHT22;3628;48.654;8.932;2023-10-31T08:28:13;10.40;99.90
7174;DHT22;3628;48.654;8.932;2023-10-31T08:30:38;10.50;99.90
7174;DHT22;3628;48.654;8.932;2023-10-31T08:33:04;10.50;99.90
7174;DHT22;3628;48.654;8.932;2023-10-31T08:35:30;10.60;99.90
7174;DHT22;3628;48.654;8.932;2023-10-31T08:37:56;10.60;99.90
7174;DHT22;3628;48.654;8.932;2023-10-31T08:40:21;10.60;99.90
7174;DHT22;3628;48.654;8.932;2023-10-31T08:42:47;10.70;99.90
7174;DHT22;3628;48.654;8.932;2023-10-31T08:45:12;10.70;99.90
7174;DHT22;3628;48.654;8.932;2023-10-31T08:47:38;10.70;99.90
7174;DHT22;3628;48.654;8.932;2023-10-31T08:50:04;10.80;99.90
7174;DHT22;3628;48.654;8.932;2023-10-31T08:52:29;10.90;99.90
7174;DHT22;3628;48.654;8.932;2023-10-31T08:54:55;11.00;99.90
7174;DHT22;3628;48.654;8.932;2023-10-31T08:57:21;11.00;99.90
7174;DHT22;3628;48.654;8.932;2023-10-31T08:59:47;11.00;99.90
7174;DHT22;3628;48.654;8.932;2023-10-31T09:02:12;11.10;99.90
7174;DHT22;3628;48.654;8.932;2023-10-31T09:04:38;11.20;99.90
7174;DHT22;3628;48.654;8.932;2023-10-31T09:07:04;11.30;99.90
7174;DHT22;3628;48.654;8.932;2023-10-31T09:09:29;11.30;99.90
7174;DHT22;3628;48.654;8.932;2023-10-31T09:11:55;11.40;99.90
7174;DHT22;3628;48.654;8.932;2023-10-31T09:14:20;11.50;99.90
7174;DHT22;3628;48.654;8.932;2023-10-31T09:16:46;11.60;99.90
7174;DHT22;3628;48.654;8.932;2023-10-31T09:19:11;11.60;99.90
7174;DHT22;3628;48.654;8.932;2023-10-31T09:21:37;11.70;99.90
7174;DHT22;3628;48.654;8.932;2023-10-31T09:24:03;11.90;99.90
7174;DHT22;3628;48.654;8.932;2023-10-31T09:26:28;11.90;99.90
7174;DHT22;3628;48.654;8.932;2023-10-31T09:28:55;12.00;99.90
7174;DHT22;3628;48.654;8.932;2023-10-31T09:31:21;12.00;99.90
7174;DHT22;3628;48.654;8.932;2023-10-31T09:33:46;12.00;99.90
7174;DHT22;3628;48.654;8.932;2023-10-31T09:36:12;12.10;99.90
7174;DHT22;3628;48.654;8.932;2023-10-31T09:38:39;12.20;99.90
7174;DHT22;3628;48.654;8.932;2023-10-31T09:41:05;12.30;99.90
7174;DHT22;3628;48.654;8.932;2023-10-31T09:43:31;12.40;99.90
7174;DHT22;3628;48.654;8.932;2023-10-31T09:45:57;12.40;99.90
7174;DHT22;3628;48.654;8.932;2023-10-31T09:48:23;12.40;99.90
7174;DHT22;3628;48.654;8.932;2023-10-31T09:50:49;12.50;99.90
7174;DHT22;3628;48.654;8.932;2023-10-31T09:53:16;12.50;99.90
7174;DHT22;3628;48.654;8.932;2023-10-31T09:55:45;12.50;99.90
7174;DHT22;3628;48.654;8.932;2023-10-31T09:58:11;12.40;99.90
7174;DHT22;3628;48.654;8.932;2023-10-31T10:00:37;12.30;99.90
7174;DHT22;3628;48.654;8.932;2023-10-31T10:03:07;12.30;99.90
7174;DHT22;3628;48.654;8.932;2023-10-31T10:05:35;12.40;99.90
7174;DHT22;3628;48.654;8.932;2023-10-31T10:08:01;12.40;99.90
7174;DHT22;3628;48.654;8.932;2023-10-31T10:10:27;12.40;99.90
7174;DHT22;3628;48.654;8.932;2023-10-31T10:12:52;12.40;99.90
7174;DHT22;3628;48.654;8.932;2023-10-31T10:15:18;12.40;99.90
7174;DHT22;3628;48.654;8.932;2023-10-31T10:17:53;12.40;99.90
7174;DHT22;3628;48.654;8.932;2023-10-31T10:20:19;12.40;99.90
7174;DHT22;3628;48.654;8.932;2023-10-31T10:22:45;12.50;99.90
7174;DHT22;3628;48.654;8.932;2023-10-31T10:25:16;12.60;99.90
7174;DHT22;3628;48.654;8.932;2023-10-31T10:27:43;12.70;99.90
7174;DHT22;3628;48.654;8.932;2023-10-31T10:30:09;12.60;99.90
7174;DHT22;3628;48.654;8.932;2023-10-31T10:32:35;12.60;99.90
7174;DHT22;3628;48.654;8.932;2023-10-31T10:35:00;12.50;99.90
7174;DHT22;3628;48.654;8.932;2023-10-31T10:37:26;12.50;99.90
7174;DHT22;3628;48.654;8.932;2023-10-31T10:39:53;12.40;99.90
7174;DHT22;3628;48.654;8.932;2023-10-31T10:42:31;12.40;99.90
7174;DHT22;3628;48.654;8.932;2023-10-31T10:45:02;12.50;99.90
7174;DHT22;3628;48.654;8.932;2023-10-31T10:47:29;12.50;99.90
7174;DHT22;3628;48.654;8.932;2023-10-31T10:49:58;12.50;99.90
7174;DHT22;3628;48.654;8.932;2023-10-31T10:52:44;12.60;99.90
7174;DHT22;3628;48.654;8.932;2023-10-31T10:55:19;12.70;99.90
7174;DHT22;3628;48.654;8.932;2023-10-31T10:58:11;12.60;99.90
7174;DHT22;3628;48.654;8.932;2023-10-31T11:00:39;12.70;99.90
7174;DHT22;3628;48.654;8.932;2023-10-31T11:03:06;12.70;99.90
7174;DHT22;3628;48.654;8.932;2023-10-31T11:05:32;12.80;99.90
7174;DHT22;3628;48.654;8.932;2023-10-31T11:07:59;13.00;99.90
7174;DHT22;3628;48.654;8.932;2023-10-31T11:10:25;13.20;99.90
7174;DHT22;3628;48.654;8.932;2023-10-31T11:12:52;13.30;99.90
7174;DHT22;3628;48.654;8.932;2023-10-31T11:15:18;13.40;99.90
7174;DHT22;3628;48.654;8.932;2023-10-31T11:17:45;13.40;99.90
7174;DHT22;3628;48.654;8.932;2023-10-31T11:20:13;13.50;99.90
7174;DHT22;3628;48.654;8.932;2023-10-31T11:22:41;13.60;99.90
7174;DHT22;3628;48.654;8.932;2023-10-31T11:25:09;13.60;99.90
7174;DHT22;3628;48.654;8.932;2023-10-31T11:27:35;13.70;99.90
7174;DHT22;3628;48.654;8.932;2023-10-31T11:30:05;13.70;99.90
7174;DHT22;3628;48.654;8.932;2023-10-31T11:32:32;13.80;99.90
7174;DHT22;3628;48.654;8.932;2023-10-31T11:34:57;13.80;99.90
7174;DHT22;3628;48.654;8.932;2023-10-31T11:37:26;13.70;99.90
7174;DHT22;3628;48.654;8.932;2023-10-31T11:42:53;13.60;99.90
7174;DHT22;3628;48.654;8.932;2023-10-31T11:45:40;13.50;99.90
7174;DHT22;3628;48.654;8.932;2023-10-31T11:48:07;13.30;99.90
7174;DHT22;3628;48.654;8.932;2023-10-31T11:50:34;13.30;99.90
7174;DHT22;3628;48.654;8.932;2023-10-31T11:53:03;13.30;99.90
7174;DHT22;3628;48.654;8.932;2023-10-31T11:55:47;13.30;99.90
7174;DHT22;3628;48.654;8.932;2023-10-31T12:00:43;13.30;99.90
7174;DHT22;3628;48.654;8.932;2023-10-31T12:03:10;13.20;99.90
7174;DHT22;3628;48.654;8.932;2023-10-31T12:05:35;13.20;99.90
7174;DHT22;3628;48.654;8.932;2023-10-31T12:08:01;13.10;99.90
7174;DHT22;3628;48.654;8.932;2023-10-31T12:10:28;13.10;99.90
7174;DHT22;3628;48.654;8.932;2023-10-31T12:12:57;13.20;99.90
7174;DHT22;3628;48.654;8.932;2023-10-31T12:15:23;13.20;99.90
7174;DHT22;3628;48.654;8.932;2023-10-31T12:17:49;13.10;99.90
7174;DHT22;3628;48.654;8.932;2023-10-31T12:20:15;13.10;99.90
7174;DHT22;3628;48.654;8.932;2023-10-31T12:22:43;13.10;99.90
7174;DHT22;3628;48.654;8.932;2023-10-31T12:25:10;13.10;99.90
7174;DHT22;3628;48.654;8.932;2023-10-31T12:27:47;13.20;99.90
7174;DHT22;3628;48.654;8.932;2023-10-31T12:30:16;13.20;99.90
7174;DHT22;3628;48.654;8.932;2023-10-31T12:32:43;13.10;99.90
7174;DHT22;3628;48.654;8.932;2023-10-31T12:35:11;13.10;99.90
7174;DHT22;3628;48.654;8.932;2023-10-31T12:37:44;13.10;99.90
7174;DHT22;3628;48.654;8.932;2023-10-31T12:40:12;13.00;99.90
7174;DHT22;3628;48.654;8.932;2023-10-31T12:42:38;13.00;99.90
7174;DHT22;3628;48.654;8.932;2023-10-31T12:45:05;13.00;99.90
7174;DHT22;3628;48.654;8.932;2023-10-31T12:47:31;13.00;99.90
7174;DHT22;3628;48.654;8.932;2023-10-31T12:52:53;13.00;99.90
7174;DHT22;3628;48.654;8.932;2023-10-31T12:55:21;13.00;99.90
7174;DHT22;3628;48.654;8.932;2023-10-31T12:57:47;12.90;99.90
7174;DHT22;3628;48.654;8.932;2023-10-31T13:00:14;12.90;99.90
7174;DHT22;3628;48.654;8.932;2023-10-31T13:02:41;13.00;99.90
7174;DHT22;3628;48.654;8.932;2023-10-31T13:05:17;12.90;99.90
7174;DHT22;3628;48.654;8.932;2023-10-31T13:07:49;12.90;99.90
7174;DHT22;3628;48.654;8.932;2023-10-31T13:10:17;13.00;99.90
7174;DHT22;3628;48.654;8.932;2023-10-31T13:12:46;13.10;99.90
7174;DHT22;3628;48.654;8.932;2023-10-31T13:15:16;13.10;99.90
7174;DHT22;3628;48.654;8.932;2023-10-31T13:17:42;13.20;99.90
7174;DHT22;3628;48.654;8.932;2023-10-31T13:20:09;13.30;99.90
7174;DHT22;3628;48.654;8.932;2023-10-31T13:22:36;13.40;99.90
7174;DHT22;3628;48.654;8.932;2023-10-31T13:25:03;13.50;99.90
7174;DHT22;3628;48.654;8.932;2023-10-31T13:27:33;13.60;99.90
7174;DHT22;3628;48.654;8.932;2023-10-31T13:30:01;13.60;99.90
7174;DHT22;3628;48.654;8.932;2023-10-31T13:32:26;13.90;99.90
7174;DHT22;3628;48.654;8.932;2023-10-31T13:34:52;14.00;99.90
7174;DHT22;3628;48.654;8.932;2023-10-31T13:37:17;14.10;99.90
7174;DHT22;3628;48.654;8.932;2023-10-31T13:39:43;14.20;99.90
7174;DHT22;3628;48.654;8.932;2023-10-31T13:42:08;14.20;99.90
7174;DHT22;3628;48.654;8.932;2023-10-31T13:44:36;14.00;99.90
7174;DHT22;3628;48.654;8.932;2023-10-31T13:47:01;14.10;99.90
7174;DHT22;3628;48.654;8.932;2023-10-31T13:49:27;14.00;99.90
7174;DHT22;3628;48.654;8.932;2023-10-31T13:51:53;14.00;99.90
7174;DHT22;3628;48.654;8.932;2023-10-31T13:54:18;14.00;99.90
7174;DHT22;3628;48.654;8.932;2023-10-31T13:56:45;13.90;99.90
7174;DHT22;3628;48.654;8.932;2023-10-31T13:59:11;13.80;99.90
7174;DHT22;3628;48.654;8.932;2023-10-31T14:01:36;13.90;99.90
7174;DHT22;3628;48.654;8.932;2023-10-31T14:04:02;13.80;99.90
7174;DHT22;3628;48.654;8.932;2023-10-31T14:06:28;13.80;99.90
7174;DHT22;3628;48.654;8.932;2023-10-31T14:08:56;13.80;99.90
7174;DHT22;3628;48.654;8.932;2023-10-31T14:11:21;13.80;99.90
7174;DHT22;3628;48.654;8.932;2023-10-31T14:13:47;13.80;99.90
7174;DHT22;3628;48.654;8.932;2023-10-31T14:16:13;13.70;99.90
7174;DHT22;3628;48.654;8.932;2023-10-31T14:18:39;13.60;99.90
7174;DHT22;3628;48.654;8.932;2023-10-31T14:21:06;13.50;99.90
7174;DHT22;3628;48.654;8.932;2023-10-31T14:23:31;13.40;99.90
7174;DHT22;3628;48.654;8.932;2023-10-31T14:25:57;13.30;99.90
7174;DHT22;3628;48.654;8.932;2023-10-31T14:28:22;13.20;99.90
7174;DHT22;3628;48.654;8.932;2023-10-31T14:30:48;13.10;99.90
7174;DHT22;3628;48.654;8.932;2023-10-31T14:33:13;13.00;99.90
7174;DHT22;3628;48.654;8.932;2023-10-31T14:35:39;12.90;99.90
7174;DHT22;3628;48.654;8.932;2023-10-31T14:38:04;12.80;99.90
7174;DHT22;3628;48.654;8.932;2023-10-31T14:40:30;12.80;99.90
7174;DHT22;3628;48.654;8.932;2023-10-31T14:42:56;12.80;99.90
7174;DHT22;3628;48.654;8.932;2023-10-31T14:45:21;12.80;99.90
7174;DHT22;3628;48.654;8.932;2023-10-31T14:47:47;12.90;99.90
7174;DHT22;3628;48.654;8.932;2023-10-31T14:50:12;12.90;99.90
7174;DHT22;3628;48.654;8.932;2023-10-31T14:52:38;13.00;99.90
7174;DHT22;3628;48.654;8.932;2023-10-31T14:55:04;13.00;99.90
7174;DHT22;3628;48.654;8.932;2023-10-31T14:57:29;12.90;99.90
7174;DHT22;3628;48.654;8.932;2023-10-31T14:59:55;12.90;99.90
7174;DHT22;3628;48.654;8.932;2023-10-31T15:02:22;12.80;99.90
7174;DHT22;3628;48.654;8.932;2023-10-31T15:04:48;12.70;99.90
7174;DHT22;3628;48.654;8.932;2023-10-31T15:07:13;12.60;99.90
7174;DHT22;3628;48.654;8.932;2023-10-31T15:09:39;12.50;99.90
7174;DHT22;3628;48.654;8.932;2023-10-31T15:12:05;12.40;99.90
7174;DHT22;3628;48.654;8.932;2023-10-31T15:14:30;12.40;99.90
7174;DHT22;3628;48.654;8.932;2023-10-31T15:16:56;12.30;99.90
7174;DHT22;3628;48.654;8.932;2023-10-31T15:19:21;12.20;99.90
7174;DHT22;3628;48.654;8.932;2023-10-31T15:21:47;12.10;99.90
7174;DHT22;3628;48.654;8.932;2023-10-31T15:24:14;12.10;99.90
7174;DHT22;3628;48.654;8.932;2023-10-31T15:26:39;12.00;99.90
7174;DHT22;3628;48.654;8.932;2023-10-31T15:29:05;11.90;99.90
7174;DHT22;3628;48.654;8.932;2023-10-31T15:31:32;11.80;99.90
7174;DHT22;3628;48.654;8.932;2023-10-31T15:33:57;11.80;99.90
7174;DHT22;3628;48.654;8.932;2023-10-31T15:36:23;11.80;99.90
7174;DHT22;3628;48.654;8.932;2023-10-31T15:38:48;11.80;99.90
7174;DHT22;3628;48.654;8.932;2023-10-31T15:41:16;11.80;99.90
7174;DHT22;3628;48.654;8.932;2023-10-31T15:43:41;11.80;99.90
7174;DHT22;3628;48.654;8.932;2023-10-31T15:46:07;11.80;99.90
7174;DHT22;3628;48.654;8.932;2023-10-31T15:48:32;11.90;99.90
7174;DHT22;3628;48.654;8.932;2023-10-31T15:50:59;11.90;99.90
7174;DHT22;3628;48.654;8.932;2023-10-31T15:53:25;12.00;99.90
7174;DHT22;3628;48.654;8.932;2023-10-31T15:55:53;12.00;99.90
7174;DHT22;3628;48.654;8.932;2023-10-31T15:58:19;12.10;99.90
7174;DHT22;3628;48.654;8.932;2023-10-31T16:00:44;12.00;99.90
7174;DHT22;3628;48.654;8.932;2023-10-31T16:03:10;12.00;99.90
7174;DHT22;3628;48.654;8.932;2023-10-31T16:05:35;12.00;99.90
7174;DHT22;3628;48.654;8.932;2023-10-31T16:08:01;11.90;99.90